Time;durP1;ratioP1;P1;durP2;ratioP2;P2;SDS_P1;SDS_P2;PMS_P1;PMS_P2;Temp;Humidity;BMP_temperature;BMP_pressure;BME280_temperature;BME280_humidity;BME280_pressure;Samples;Min_cycle;Max_cycle;Signal;HPM_P1;HPM_P2
2023/07/20 00:00:05;;;;;;;3.73;2.23;;;16.70;99.90;;;;;;8271790;28;20384;-65
2023/07/20 00:04:06;;;;;;;3.80;2.43;;;16.80;1.00;;;;;;8267857;28;20207;-66
2023/07/20 00:08:07;;;;;;;4.10;2.70;;;16.70;1.00;;;;;;8268005;28;20214;-71
2023/07/20 00:12:08;;;;;;;3.30;2.50;;;16.60;1.00;;;;;;8263186;28;20219;-67
2023/07/20 00:16:09;;;;;;;3.50;2.57;;;16.40;1.00;;;;;;8288108;28;20183;-65
2023/07/20 00:20:13;;;;;;;3.67;2.27;;;16.30;99.90;;;;;;8265873;28;20214;-65
2023/07/20 00:24:14;;;;;;;5.50;2.90;;;16.20;99.90;;;;;;8265259;28;20179;-65
2023/07/20 00:28:15;;;;;;;2.87;2.43;;;16.20;99.90;;;;;;8271857;28;20194;-65
2023/07/20 00:32:16;;;;;;;3.57;2.47;;;16.20;99.90;;;;;;8272852;28;20187;-65
2023/07/20 00:36:17;;;;;;;4.53;2.60;;;16.20;99.90;;;;;;8266698;28;20234;-65
2023/07/20 00:40:21;;;;;;;4.97;2.90;;;16.10;99.90;;;;;;8271563;28;20340;-65
2023/07/20 00:44:22;;;;;;;3.83;2.40;;;16.10;99.90;;;;;;8270433;28;20216;-65
2023/07/20 00:48:23;;;;;;;4.53;2.97;;;16.20;99.90;;;;;;8270910;28;20213;-65
2023/07/20 00:52:28;;;;;;;4.30;2.83;;;16.20;99.90;;;;;;8267072;28;20268;-66
2023/07/20 00:56:29;;;;;;;5.27;3.20;;;16.20;99.90;;;;;;8276723;28;20195;-65
2023/07/20 01:00:30;;;;;;;4.00;2.90;;;16.20;99.90;;;;;;8281401;28;20206;-66
2023/07/20 01:04:31;;;;;;;3.93;2.57;;;16.30;88.40;;;;;;8266460;28;20318;-67
2023/07/20 01:08:42;;;;;;;5.23;2.73;;;16.40;1.00;;;;;;8263114;28;20198;-66
2023/07/20 01:12:46;;;;;;;5.03;2.57;;;16.40;1.00;;;;;;8278421;28;20187;-65
2023/07/20 01:16:49;;;;;;;3.80;2.73;;;16.30;1.00;;;;;;8289292;28;20261;-65
2023/07/20 01:20:59;;;;;;;5.53;3.10;;;16.30;1.00;;;;;;8279456;28;20243;-66
2023/07/20 01:25:27;;;;;;;4.40;2.83;;;16.40;1.00;;;;;;8292761;28;20183;-64
2023/07/20 01:29:34;;;;;;;4.93;3.10;;;16.30;1.00;;;;;;8278970;28;20252;-65
2023/07/20 01:33:35;;;;;;;3.70;2.83;;;16.30;42.70;;;;;;8276101;28;20224;-68
2023/07/20 01:37:38;;;;;;;3.83;2.83;;;16.20;99.90;;;;;;8275324;28;20206;-66
2023/07/20 01:41:38;;;;;;;4.17;3.17;;;16.20;99.90;;;;;;8279032;28;20183;-67
2023/07/20 01:45:39;;;;;;;4.13;2.83;;;16.10;99.90;;;;;;8271267;28;20198;-66
2023/07/20 01:49:40;;;;;;;4.20;3.03;;;16.00;99.90;;;;;;8275236;28;20241;-63
2023/07/20 01:53:41;;;;;;;5.33;3.50;;;15.90;1.00;;;;;;8277661;28;20190;-63
2023/07/20 01:57:42;;;;;;;5.57;3.70;;;15.80;99.90;;;;;;8277276;28;20215;-63
2023/07/20 02:01:43;;;;;;;6.43;3.67;;;15.70;2.30;;;;;;8279470;28;20182;-64
2023/07/20 02:05:44;;;;;;;4.83;3.40;;;15.70;23.00;;;;;;8278470;28;20284;-63
2023/07/20 02:09:45;;;;;;;3.93;3.30;;;15.70;1.00;;;;;;8274920;28;20219;-63
2023/07/20 02:13:46;;;;;;;6.27;3.50;;;15.70;1.00;;;;;;8275138;28;20183;-66
2023/07/20 02:17:47;;;;;;;4.77;3.27;;;15.60;1.00;;;;;;8270794;28;20207;-67
2023/07/20 02:21:48;;;;;;;4.83;3.90;;;15.50;1.00;;;;;;8271769;28;20188;-66
2023/07/20 02:25:49;;;;;;;5.00;3.73;;;15.60;99.90;;;;;;8270654;28;20222;-67
2023/07/20 02:29:50;;;;;;;6.17;4.10;;;15.60;1.00;;;;;;8273981;28;20198;-67
2023/07/20 02:33:51;;;;;;;4.57;3.73;;;15.60;99.90;;;;;;8273185;28;20190;-67
2023/07/20 02:37:52;;;;;;;4.87;3.80;;;15.60;99.90;;;;;;8268969;28;20315;-66
2023/07/20 02:41:53;;;;;;;4.43;3.20;;;15.60;1.00;;;;;;8270970;28;20194;-63
2023/07/20 02:45:54;;;;;;;5.63;3.00;;;15.50;1.00;;;;;;8276057;28;20175;-63
2023/07/20 02:49:55;;;;;;;4.37;3.30;;;15.50;1.00;;;;;;8266611;28;20187;-64
2023/07/20 02:53:55;;;;;;;4.50;3.30;;;15.50;99.90;;;;;;8271762;28;20288;-64
2023/07/20 02:57:56;;;;;;;4.87;3.80;;;15.50;99.90;;;;;;8272422;28;20261;-64
2023/07/20 03:01:57;;;;;;;3.67;3.33;;;15.50;1.00;;;;;;8274694;28;20205;-63
2023/07/20 03:05:59;;;;;;;4.70;3.83;;;15.50;99.90;;;;;;8271688;28;20285;-64
2023/07/20 03:09:59;;;;;;;4.40;3.77;;;15.50;1.00;;;;;;8270392;28;20191;-63
2023/07/20 03:14:01;;;;;;;5.17;4.13;;;15.50;99.90;;;;;;8268293;28;20310;-64
2023/07/20 03:18:03;;;;;;;4.03;3.63;;;15.50;99.90;;;;;;8272247;28;20320;-64
2023/07/20 03:22:04;;;;;;;5.60;3.90;;;15.50;99.90;;;;;;8271819;28;20180;-66
2023/07/20 03:26:08;;;;;;;4.57;4.13;;;15.60;1.00;;;;;;8276511;28;20187;-64
2023/07/20 03:30:09;;;;;;;4.50;3.80;;;15.50;1.00;;;;;;8271929;28;20187;-64
2023/07/20 03:34:10;;;;;;;5.57;4.07;;;15.50;83.60;;;;;;8273383;28;20183;-64
2023/07/20 03:38:10;;;;;;;5.83;3.90;;;15.60;29.00;;;;;;8275795;28;20276;-64
2023/07/20 03:42:12;;;;;;;5.37;3.77;;;15.60;59.30;;;;;;8273397;28;20190;-67
2023/07/20 03:46:12;;;;;;;7.73;3.53;;;15.60;24.10;;;;;;8286038;28;20195;-67
2023/07/20 03:50:13;;;;;;;5.07;4.20;;;15.70;99.90;;;;;;8296756;28;20194;-67
2023/07/20 03:54:14;;;;;;;4.27;3.70;;;15.80;99.90;;;;;;8280435;28;20195;-65
2023/07/20 03:58:19;;;;;;;5.90;4.17;;;15.80;1.00;;;;;;8272696;28;20214;-66
2023/07/20 04:02:23;;;;;;;6.80;4.33;;;15.80;99.90;;;;;;8273461;28;20198;-67
2023/07/20 04:06:24;;;;;;;7.17;4.37;;;15.80;1.00;;;;;;8270754;28;20223;-68
2023/07/20 04:10:24;;;;;;;6.70;4.57;;;15.80;1.00;;;;;;8279060;28;20197;-68
2023/07/20 04:14:25;;;;;;;8.00;3.93;;;15.80;99.90;;;;;;8272362;28;20195;-66
2023/07/20 04:18:26;;;;;;;5.30;4.30;;;15.90;1.00;;;;;;8274814;28;20214;-66
2023/07/20 04:22:27;;;;;;;6.30;4.17;;;15.90;99.90;;;;;;8280268;28;20191;-65
2023/07/20 04:26:27;;;;;;;9.10;3.90;;;16.00;99.90;;;;;;8272855;28;20187;-67
2023/07/20 04:30:29;;;;;;;4.93;4.30;;;16.10;99.90;;;;;;8275578;28;20206;-66
2023/07/20 04:34:29;;;;;;;7.03;3.93;;;16.30;99.90;;;;;;8270278;28;20222;-69
2023/07/20 04:38:30;;;;;;;4.47;3.77;;;16.80;99.90;;;;;;8265222;28;20223;-65
2023/07/20 04:42:31;;;;;;;4.73;3.90;;;16.80;1.00;;;;;;8268134;28;20183;-66
2023/07/20 04:46:32;;;;;;;5.13;3.87;;;16.90;1.00;;;;;;8263377;28;20254;-71
2023/07/20 04:50:33;;;;;;;6.93;4.00;;;16.90;1.00;;;;;;8268768;28;20183;-67
2023/07/20 04:54:34;;;;;;;9.53;4.00;;;16.70;1.00;;;;;;8272644;28;20186;-66
2023/07/20 04:58:35;;;;;;;7.77;4.07;;;16.70;71.40;;;;;;8266235;28;20206;-68
2023/07/20 05:02:36;;;;;;;7.67;3.90;;;16.80;39.20;;;;;;8272588;28;20193;-68
2023/07/20 05:06:38;;;;;;;7.13;3.27;;;16.90;1.00;;;;;;8274864;28;20206;-66
2023/07/20 05:10:39;;;;;;;4.70;3.37;;;17.20;99.90;;;;;;8275166;28;20199;-69
2023/07/20 05:14:41;;;;;;;7.27;2.97;;;17.10;99.90;;;;;;8275065;28;20191;-69
2023/07/20 05:18:42;;;;;;;5.53;4.10;;;17.00;1.00;;;;;;8278352;28;20430;-67
2023/07/20 05:22:45;;;;;;;3.40;3.10;;;17.00;1.00;;;;;;8272600;28;20214;-69
2023/07/20 05:26:47;;;;;;;4.70;3.63;;;17.10;1.00;;;;;;8271766;28;20190;-67
2023/07/20 05:30:48;;;;;;;5.23;3.43;;;17.30;99.90;;;;;;8277353;28;20187;-65
2023/07/20 05:34:52;;;;;;;5.40;3.27;;;17.60;99.90;;;;;;8273855;28;20201;-67
2023/07/20 05:38:53;;;;;;;4.83;3.50;;;17.90;99.90;;;;;;8271213;28;20229;-65
2023/07/20 05:42:56;;;;;;;9.43;3.93;;;18.00;99.90;;;;;;8270381;28;20187;-64
2023/07/20 05:46:57;;;;;;;5.80;3.07;;;18.20;99.90;;;;;;8278365;28;20195;-67
2023/07/20 05:50:58;;;;;;;3.47;2.83;;;18.30;99.90;;;;;;8271784;28;20311;-64
2023/07/20 05:54:59;;;;;;;4.83;3.10;;;18.30;99.90;;;;;;8271531;28;20191;-66
2023/07/20 05:59:00;;;;;;;4.27;3.30;;;18.50;76.10;;;;;;8278651;28;20317;-65
2023/07/20 06:03:00;;;;;;;3.73;3.30;;;18.50;67.10;;;;;;8275662;28;20235;-67
2023/07/20 06:07:01;;;;;;;4.10;3.20;;;18.60;40.60;;;;;;8276615;28;20191;-67
2023/07/20 06:11:02;;;;;;;3.63;3.33;;;18.30;92.20;;;;;;8278672;28;20203;-67
2023/07/20 06:15:05;;;;;;;3.13;2.87;;;18.50;85.00;;;;;;8274743;28;20191;-68
2023/07/20 06:19:06;;;;;;;4.43;2.93;;;18.80;13.80;;;;;;8277535;28;20203;-68
2023/07/20 06:23:06;;;;;;;4.00;3.23;;;19.10;9.50;;;;;;8283173;28;20259;-65
2023/07/20 06:27:07;;;;;;;5.27;3.10;;;19.40;1.00;;;;;;8277518;28;20217;-65
2023/07/20 06:31:08;;;;;;;3.33;3.03;;;19.80;1.00;;;;;;8273750;28;20211;-65
2023/07/20 06:35:09;;;;;;;4.90;2.60;;;19.60;1.00;;;;;;8279972;28;20187;-67
2023/07/20 06:39:10;;;;;;;3.67;2.90;;;19.30;1.00;;;;;;8278786;28;20269;-68
2023/07/20 06:43:11;;;;;;;3.90;3.23;;;19.70;1.00;;;;;;8282900;28;20186;-67
2023/07/20 06:47:12;;;;;;;4.50;2.97;;;19.50;1.00;;;;;;8276047;28;20307;-67
2023/07/20 06:51:13;;;;;;;3.23;2.90;;;19.40;1.00;;;;;;8276415;28;20280;-69
2023/07/20 06:55:14;;;;;;;3.63;2.80;;;19.60;1.00;;;;;;8272355;28;20198;-67
2023/07/20 06:59:15;;;;;;;8.43;2.60;;;19.80;1.00;;;;;;8275407;28;20303;-66
2023/07/20 07:03:16;;;;;;;3.40;2.60;;;20.20;1.00;;;;;;8273692;28;20280;-63
2023/07/20 07:07:17;;;;;;;3.70;2.60;;;19.80;1.00;;;;;;8265588;28;20204;-64
2023/07/20 07:11:18;;;;;;;2.97;2.40;;;20.10;1.00;;;;;;8270813;28;20187;-66
2023/07/20 07:15:19;;;;;;;2.83;2.23;;;20.40;1.00;;;;;;8270965;28;20218;-64
2023/07/20 07:19:20;;;;;;;3.07;2.27;;;20.50;1.00;;;;;;8274920;28;20214;-65
2023/07/20 07:23:21;;;;;;;3.73;2.43;;;20.70;1.00;;;;;;8274804;28;20187;-63
2023/07/20 07:27:22;;;;;;;2.63;2.10;;;20.30;1.00;;;;;;8274962;28;20189;-67
2023/07/20 07:31:34;;;;;;;2.27;1.70;;;19.80;1.00;;;;;;8274269;28;20195;-65
2023/07/20 07:35:39;;;;;;;3.00;1.77;;;19.50;1.00;;;;;;8279855;28;20171;-65
2023/07/20 07:39:42;;;;;;;2.37;1.50;;;19.40;1.00;;;;;;8277645;28;20219;-64
2023/07/20 07:43:43;;;;;;;2.00;1.80;;;19.60;1.00;;;;;;8272767;28;20197;-64
2023/07/20 07:47:44;;;;;;;2.93;1.83;;;19.90;1.00;;;;;;8276706;28;20191;-66
2023/07/20 07:51:46;;;;;;;3.53;2.10;;;20.30;1.00;;;;;;8275131;28;20217;-69
2023/07/20 07:55:50;;;;;;;2.03;1.60;;;20.00;1.00;;;;;;8274474;28;20206;-67
2023/07/20 07:59:51;;;;;;;2.77;1.60;;;20.10;1.00;;;;;;8271182;28;20227;-69
2023/07/20 08:03:51;;;;;;;1.60;1.33;;;19.80;1.00;;;;;;8272661;28;20215;-68
2023/07/20 08:07:52;;;;;;;1.83;1.40;;;19.70;1.00;;;;;;8272754;28;20211;-68
2023/07/20 08:11:56;;;;;;;1.20;1.10;;;19.90;1.00;;;;;;8274259;28;20290;-68
2023/07/20 08:15:57;;;;;;;1.67;1.00;;;20.20;1.00;;;;;;8271323;28;20257;-67
2023/07/20 08:19:58;;;;;;;2.57;1.20;;;20.40;1.00;;;;;;8276367;28;20222;-71
2023/07/20 08:23:59;;;;;;;2.87;1.63;;;20.40;1.00;;;;;;8267163;28;20198;-68
2023/07/20 08:28:00;;;;;;;2.23;1.30;;;20.00;1.00;;;;;;8269771;28;20199;-70
2023/07/20 08:32:02;;;;;;;1.30;1.20;;;19.90;1.00;;;;;;8272583;28;20205;-63
2023/07/20 08:36:06;;;;;;;1.50;1.40;;;20.40;1.00;;;;;;8273119;28;20246;-70
2023/07/20 08:40:10;;;;;;;1.67;1.40;;;20.40;1.00;;;;;;8274789;28;20223;-68
2023/07/20 08:44:11;;;;;;;1.37;1.27;;;20.50;1.00;;;;;;8278796;28;20187;-67
2023/07/20 08:48:12;;;;;;;2.50;1.57;;;20.90;1.00;;;;;;8272759;28;20195;-70
2023/07/20 08:52:13;;;;;;;2.03;1.60;;;21.40;1.00;;;;;;8263549;28;20277;-68
2023/07/20 08:56:16;;;;;;;2.90;1.50;;;21.70;1.00;;;;;;8275496;28;20191;-68
2023/07/20 09:00:19;;;;;;;2.17;1.60;;;22.00;1.00;;;;;;8275787;28;20273;-66
2023/07/20 09:04:20;;;;;;;4.40;2.20;;;21.30;1.00;;;;;;8267294;28;20208;-67
2023/07/20 09:08:21;;;;;;;3.77;2.47;;;20.60;1.00;;;;;;8275499;28;20305;-67
2023/07/20 09:12:22;;;;;;;3.93;2.57;;;19.80;1.00;;;;;;8270712;28;20214;-66
2023/07/20 09:16:23;;;;;;;3.17;2.83;;;19.70;1.00;;;;;;8278399;28;20195;-66
2023/07/20 09:20:24;;;;;;;3.20;3.00;;;19.70;1.00;;;;;;8276130;28;20219;-65
2023/07/20 09:24:29;;;;;;;3.03;2.73;;;19.70;1.00;;;;;;8269040;28;20206;-67
2023/07/20 09:28:34;;;;;;;3.47;2.60;;;20.00;1.00;;;;;;8272867;28;20186;-65
2023/07/20 09:32:43;;;;;;;3.23;2.93;;;20.20;1.00;;;;;;8275201;28;20192;-66
2023/07/20 09:36:44;;;;;;;4.10;2.70;;;20.20;1.00;;;;;;8281077;28;20262;-65
2023/07/20 09:45:42;;;;;;;3.33;2.67;;;20.10;1.00;;;;;;8279637;28;20183;-67
2023/07/20 09:49:43;;;;;;;2.77;2.53;;;20.20;1.00;;;;;;8285223;28;20611;-64
2023/07/20 09:53:45;;;;;;;3.33;2.83;;;20.90;1.00;;;;;;8279245;28;20220;-66
2023/07/20 09:57:50;;;;;;;2.53;2.33;;;21.50;1.00;;;;;;8283244;28;20203;-67
2023/07/20 10:01:56;;;;;;;2.70;2.30;;;22.30;1.00;;;;;;8283110;28;20203;-67
2023/07/20 10:06:03;;;;;;;2.57;1.97;;;23.30;1.00;;;;;;8273601;28;20223;-66
2023/07/20 10:10:05;;;;;;;3.63;1.77;;;24.20;1.00;;;;;;8294196;28;20234;-67
2023/07/20 10:14:08;;;;;;;2.20;1.97;;;24.40;1.00;;;;;;8276885;28;20187;-67
2023/07/20 10:18:34;;;;;;;1.90;1.80;;;24.20;1.00;;;;;;8283157;28;20349;-67
2023/07/20 10:22:36;;;;;;;2.57;1.53;;;24.40;1.00;;;;;;8274704;28;20190;-68
2023/07/20 10:26:40;;;;;;;2.57;1.90;;;23.90;99.90;;;;;;8279234;28;20212;-66
2023/07/20 10:30:42;;;;;;;1.97;1.80;;;22.50;99.90;;;;;;8279355;28;20227;-66
2023/07/20 10:34:53;;;;;;;2.47;1.93;;;21.30;1.00;;;;;;8280521;28;20321;-70
2023/07/20 10:39:01;;;;;;;2.10;1.40;;;20.40;1.00;;;;;;8258765;28;20215;-67
2023/07/20 10:43:07;;;;;;;1.93;1.63;;;19.70;1.00;;;;;;8274784;28;20186;-68
2023/07/20 10:47:12;;;;;;;1.53;1.20;;;19.50;1.00;;;;;;8273065;28;20187;-67
2023/07/20 10:51:23;;;;;;;1.50;1.27;;;19.40;1.00;;;;;;8272104;28;20272;-70
2023/07/20 10:55:25;;;;;;;1.00;0.90;;;19.50;1.00;;;;;;8279419;28;20273;-66
2023/07/20 10:59:29;;;;;;;1.63;1.00;;;19.60;1.00;;;;;;8274248;28;20215;-66
2023/07/20 11:03:35;;;;;;;2.70;0.80;;;19.90;1.00;;;;;;8275444;28;20207;-68
2023/07/20 11:07:38;;;;;;;1.00;0.90;;;20.30;1.00;;;;;;8275492;28;20230;-67
2023/07/20 11:11:40;;;;;;;0.87;0.80;;;20.80;1.00;;;;;;8269412;28;20274;-68
2023/07/20 11:16:07;;;;;;;1.00;0.60;;;21.30;1.00;;;;;;8273492;28;20184;-67
2023/07/20 11:20:13;;;;;;;0.63;0.50;;;22.00;1.00;;;;;;8269752;28;20215;-69
2023/07/20 11:24:14;;;;;;;1.33;1.20;;;22.30;1.00;;;;;;8278180;28;20229;-67
2023/07/20 11:28:15;;;;;;;1.50;1.40;;;22.60;1.00;;;;;;8274851;28;20287;-67
2023/07/20 11:32:26;;;;;;;1.63;1.30;;;23.00;1.00;;;;;;8272434;28;20236;-68
2023/07/20 11:36:28;;;;;;;2.10;1.07;;;23.50;1.00;;;;;;8276379;28;20195;-69
2023/07/20 11:40:29;;;;;;;1.40;0.93;;;23.80;1.00;;;;;;8273839;28;20227;-68
2023/07/20 11:44:30;;;;;;;3.10;1.60;;;23.80;1.00;;;;;;8271108;28;20297;-68
2023/07/20 11:48:31;;;;;;;2.63;1.17;;;24.30;1.00;;;;;;8279006;28;20187;-67
2023/07/20 11:52:32;;;;;;;1.57;0.70;;;24.90;99.90;;;;;;8272767;28;20191;-67
2023/07/20 11:56:33;;;;;;;1.17;0.90;;;25.40;99.90;;;;;;8272519;28;20267;-65
2023/07/20 12:00:35;;;;;;;1.10;0.90;;;25.20;99.90;;;;;;8275657;28;20218;-65
2023/07/20 12:04:36;;;;;;;1.37;0.73;;;24.90;99.90;;;;;;8275553;28;20225;-65
2023/07/20 12:08:44;;;;;;;1.33;0.70;;;24.20;99.90;;;;;;8269916;28;20198;-66
2023/07/20 12:12:45;;;;;;;1.10;0.60;;;24.10;99.90;;;;;;8283352;28;20203;-65
2023/07/20 12:16:56;;;;;;;1.63;0.50;;;24.00;99.90;;;;;;8268841;28;20278;-65
2023/07/20 12:20:59;;;;;;;0.60;0.50;;;23.90;99.90;;;;;;8262667;28;20214;-66
2023/07/20 12:25:00;;;;;;;0.70;0.60;;;24.10;99.90;;;;;;8273214;28;20195;-67
2023/07/20 12:29:03;;;;;;;2.50;0.70;;;23.80;99.90;;;;;;8269025;28;20210;-65
2023/07/20 12:33:05;;;;;;;1.23;0.60;;;23.20;99.90;;;;;;8278111;28;20202;-66
2023/07/20 12:37:09;;;;;;;2.10;0.70;;;22.70;99.90;;;;;;8272264;28;20191;-64
2023/07/20 12:41:14;;;;;;;1.73;0.70;;;22.60;99.90;;;;;;8272272;28;20315;-65
2023/07/20 12:45:15;;;;;;;0.80;0.70;;;22.70;99.90;;;;;;8272955;28;20188;-65
2023/07/20 12:49:19;;;;;;;0.80;0.60;;;22.90;99.90;;;;;;8276053;28;20237;-66
2023/07/20 12:53:19;;;;;;;0.90;0.80;;;22.90;99.90;;;;;;8271093;28;20357;-67
2023/07/20 12:57:22;;;;;;;1.37;0.80;;;23.20;99.90;;;;;;8268341;28;20190;-63
2023/07/20 13:01:24;;;;;;;2.87;0.80;;;23.80;99.90;;;;;;8267800;28;20272;-66
2023/07/20 13:05:27;;;;;;;0.70;0.70;;;24.20;99.90;;;;;;8273306;28;20314;-64
2023/07/20 13:09:34;;;;;;;0.93;0.50;;;23.60;99.90;;;;;;8269432;28;20285;-66
2023/07/20 13:13:35;;;;;;;2.43;0.80;;;23.20;99.90;;;;;;8280166;28;20197;-65
2023/07/20 13:17:37;;;;;;;1.00;0.70;;;22.80;99.90;;;;;;8266446;28;20203;-65
2023/07/20 13:21:38;;;;;;;0.70;0.50;;;22.60;99.90;;;;;;8261039;28;20224;-63
2023/07/20 13:25:39;;;;;;;2.30;0.60;;;22.70;99.90;;;;;;8266959;28;20191;-66
2023/07/20 13:29:40;;;;;;;1.30;0.60;;;22.80;99.90;;;;;;8269079;28;20190;-66
2023/07/20 13:33:42;;;;;;;0.70;0.40;;;23.30;99.90;;;;;;8265829;28;20201;-64
2023/07/20 13:37:43;;;;;;;1.03;0.60;;;23.60;99.90;;;;;;8266441;28;20202;-63
2023/07/20 13:41:53;;;;;;;1.33;0.50;;;23.70;99.90;;;;;;8258094;28;20187;-65
2023/07/20 13:45:55;;;;;;;1.27;0.40;;;23.40;99.90;;;;;;8265333;28;20197;-64
2023/07/20 13:49:55;;;;;;;0.60;0.47;;;23.10;99.90;;;;;;8262788;28;20250;-65
2023/07/20 13:54:02;;;;;;;2.07;0.50;;;23.10;99.90;;;;;;8264092;28;20245;-66
2023/07/20 13:58:03;;;;;;;1.17;0.50;;;23.00;99.90;;;;;;8262968;28;20215;-64
2023/07/20 14:02:04;;;;;;;1.83;0.90;;;22.80;99.90;;;;;;8267984;28;20203;-64
2023/07/20 14:06:05;;;;;;;0.50;0.50;;;22.90;99.90;;;;;;8256677;28;20299;-65
2023/07/20 14:10:06;;;;;;;1.30;0.60;;;23.00;99.90;;;;;;8264475;28;20187;-65
2023/07/20 14:14:07;;;;;;;1.10;0.60;;;23.00;99.90;;;;;;8266784;28;20195;-65
2023/07/20 14:18:12;;;;;;;2.00;0.70;;;23.00;99.90;;;;;;8265766;28;20238;-66
2023/07/20 14:22:13;;;;;;;0.43;0.40;;;23.00;99.90;;;;;;8268538;28;20191;-65
2023/07/20 14:26:17;;;;;;;1.10;0.50;;;23.00;99.90;;;;;;8273581;28;20188;-64
2023/07/20 14:30:18;;;;;;;1.53;0.57;;;23.30;99.90;;;;;;8270326;28;20202;-64
2023/07/20 14:34:19;;;;;;;0.60;0.50;;;23.60;99.90;;;;;;8268512;28;20191;-64
2023/07/20 14:38:23;;;;;;;2.60;0.60;;;23.50;99.90;;;;;;8251860;28;20283;-63
2023/07/20 14:42:24;;;;;;;1.63;0.60;;;23.40;99.90;;;;;;8261973;28;20194;-67
2023/07/20 14:46:25;;;;;;;3.60;0.63;;;23.50;99.90;;;;;;8274964;28;20191;-66
2023/07/20 14:50:26;;;;;;;0.80;0.60;;;23.50;99.90;;;;;;8270549;28;20218;-63
2023/07/20 14:54:30;;;;;;;1.73;0.63;;;23.40;99.90;;;;;;8266537;28;20206;-67
2023/07/20 14:58:31;;;;;;;2.63;0.60;;;23.30;99.90;;;;;;8272102;28;20207;-67
2023/07/20 15:02:35;;;;;;;3.43;0.43;;;23.00;99.90;;;;;;8268878;28;20267;-65
2023/07/20 15:06:37;;;;;;;0.97;0.63;;;23.00;99.90;;;;;;8260980;28;20206;-65
2023/07/20 15:10:37;;;;;;;1.07;0.60;;;22.80;99.90;;;;;;8271840;28;20187;-67
2023/07/20 15:14:43;;;;;;;1.13;0.40;;;22.50;99.90;;;;;;8270249;28;20191;-66
2023/07/20 15:18:44;;;;;;;2.20;0.50;;;22.50;99.90;;;;;;8268449;28;20206;-67
2023/07/20 15:22:45;;;;;;;2.43;1.10;;;22.50;99.90;;;;;;8269493;28;20196;-67
2023/07/20 15:26:51;;;;;;;3.87;0.80;;;22.50;99.90;;;;;;8271147;28;20191;-65
2023/07/20 15:31:12;;;;;;;0.80;0.50;;;22.60;99.90;;;;;;8284980;28;20237;-66
2023/07/20 15:35:13;;;;;;;1.00;0.60;;;22.50;99.90;;;;;;8267080;28;20211;-65
2023/07/20 15:39:14;;;;;;;1.33;0.73;;;22.20;99.90;;;;;;8273337;28;20256;-68
2023/07/20 15:43:16;;;;;;;0.77;0.70;;;22.00;99.90;;;;;;8272519;28;20232;-66
2023/07/20 15:47:16;;;;;;;0.60;0.57;;;21.50;99.90;;;;;;8269689;28;20191;-66
2023/07/20 15:51:18;;;;;;;1.13;0.70;;;21.30;99.90;;;;;;8265625;28;20195;-68
2023/07/20 15:55:22;;;;;;;0.83;0.67;;;21.20;99.90;;;;;;8269583;28;20191;-68
2023/07/20 15:59:23;;;;;;;1.90;0.70;;;21.20;99.90;;;;;;8269834;28;20283;-66
2023/07/20 16:03:24;;;;;;;1.50;0.90;;;21.20;99.90;;;;;;8283481;28;20206;-68
2023/07/20 16:07:37;;;;;;;1.33;0.70;;;21.40;99.90;;;;;;8260050;28;20210;-68
2023/07/20 16:11:39;;;;;;;1.53;0.60;;;21.60;99.90;;;;;;8263956;28;20265;-68
2023/07/20 16:15:40;;;;;;;0.87;0.60;;;21.80;99.90;;;;;;8272048;28;20183;-68
2023/07/20 16:19:41;;;;;;;2.33;0.80;;;21.70;99.90;;;;;;8263297;28;20219;-68
2023/07/20 16:23:45;;;;;;;2.63;0.83;;;21.80;99.90;;;;;;8260567;28;20201;-67
2023/07/20 16:27:46;;;;;;;1.23;0.80;;;22.00;99.90;;;;;;8262119;28;20191;-70
2023/07/20 16:31:47;;;;;;;1.27;0.77;;;22.10;99.90;;;;;;8267170;28;20187;-67
2023/07/20 16:35:51;;;;;;;0.80;0.80;;;21.90;99.90;;;;;;8262065;28;20211;-68
2023/07/20 16:39:52;;;;;;;1.37;0.60;;;22.20;99.90;;;;;;8276596;28;20249;-64
2023/07/20 16:43:54;;;;;;;0.80;0.57;;;22.40;99.90;;;;;;8265889;28;20200;-64
2023/07/20 16:47:55;;;;;;;0.33;0.33;;;22.30;99.90;;;;;;8261971;28;20198;-62
2023/07/20 16:51:56;;;;;;;1.10;0.67;;;22.20;99.90;;;;;;8267852;28;20191;-63
2023/07/20 16:55:57;;;;;;;1.37;0.67;;;21.80;99.90;;;;;;8263476;28;20187;-64
2023/07/20 16:59:58;;;;;;;0.73;0.60;;;21.80;99.90;;;;;;8269428;28;20225;-64
2023/07/20 17:04:08;;;;;;;0.87;0.60;;;21.90;99.90;;;;;;8266236;28;20233;-64
2023/07/20 17:08:09;;;;;;;0.63;0.53;;;21.90;99.90;;;;;;8263417;28;20209;-64
2023/07/20 17:12:11;;;;;;;1.90;0.60;;;21.80;99.90;;;;;;8280968;28;20202;-64
2023/07/20 17:16:12;;;;;;;1.20;0.63;;;21.70;99.90;;;;;;8268696;28;20194;-65
2023/07/20 17:20:13;;;;;;;1.53;0.50;;;21.50;99.90;;;;;;8258144;28;20222;-63
2023/07/20 17:24:16;;;;;;;2.20;0.60;;;21.40;99.90;;;;;;8259247;28;20199;-63
2023/07/20 17:28:18;;;;;;;1.07;0.77;;;21.50;99.90;;;;;;8258201;28;20202;-64
2023/07/20 17:32:19;;;;;;;1.43;0.63;;;22.00;99.90;;;;;;8272234;28;20191;-63
2023/07/20 17:36:21;;;;;;;2.43;0.97;;;22.20;99.90;;;;;;8271384;28;20197;-63
2023/07/20 17:40:23;;;;;;;1.10;0.70;;;22.10;99.90;;;;;;8264490;28;20211;-64
2023/07/20 17:44:23;;;;;;;1.00;0.90;;;22.30;99.90;;;;;;8270164;28;20194;-65
2023/07/20 17:48:24;;;;;;;1.53;0.77;;;22.00;99.90;;;;;;8272156;28;20195;-65
2023/07/20 17:52:26;;;;;;;1.17;0.60;;;21.60;99.90;;;;;;8266382;28;20190;-67
2023/07/20 17:56:27;;;;;;;3.40;0.70;;;21.50;99.90;;;;;;8269930;28;20187;-68
2023/07/20 18:00:30;;;;;;;1.27;0.63;;;21.30;99.90;;;;;;8277289;28;20226;-68
2023/07/20 18:04:30;;;;;;;0.80;0.80;;;21.10;99.90;;;;;;8273783;28;20206;-70
2023/07/20 18:08:31;;;;;;;1.30;0.60;;;20.80;99.90;;;;;;8273362;28;20237;-69
2023/07/20 18:12:32;;;;;;;1.30;0.80;;;20.60;99.90;;;;;;8289921;28;20187;-69
2023/07/20 18:16:45;;;;;;;1.03;0.60;;;20.30;99.90;;;;;;8280987;28;20187;-69
2023/07/20 18:20:46;;;;;;;1.40;0.80;;;20.10;99.90;;;;;;8279268;28;20334;-69
2023/07/20 18:24:48;;;;;;;1.10;0.80;;;19.80;99.90;;;;;;8282131;28;20271;-70
2023/07/20 18:28:49;;;;;;;1.97;0.90;;;19.70;99.90;;;;;;8293975;28;20190;-69
2023/07/20 18:32:53;;;;;;;0.67;0.67;;;19.50;99.90;;;;;;8277632;28;20275;-68
2023/07/20 18:36:54;;;;;;;2.33;0.60;;;19.40;99.90;;;;;;8272810;28;20188;-68
2023/07/20 18:40:54;;;;;;;1.23;0.80;;;19.30;99.90;;;;;;8276967;28;20345;-68
2023/07/20 18:44:55;;;;;;;2.97;0.93;;;19.30;99.90;;;;;;8278474;28;20258;-67
2023/07/20 18:48:57;;;;;;;2.83;1.07;;;19.40;99.90;;;;;;8278273;28;20195;-67
2023/07/20 18:53:00;;;;;;;1.27;0.70;;;19.60;99.90;;;;;;8271965;28;20194;-64
2023/07/20 18:57:01;;;;;;;2.83;0.90;;;19.50;99.90;;;;;;8276996;28;20210;-64
2023/07/20 19:01:03;;;;;;;1.37;0.70;;;19.40;99.90;;;;;;8265784;28;20219;-64
2023/07/20 19:05:05;;;;;;;1.17;0.50;;;19.10;99.90;;;;;;8272656;28;20212;-64
2023/07/20 19:09:06;;;;;;;1.40;0.90;;;19.00;99.90;;;;;;8276840;28;20207;-64
2023/07/20 19:13:07;;;;;;;1.57;0.80;;;18.90;99.90;;;;;;8268166;28;20198;-64
2023/07/20 19:17:08;;;;;;;1.37;0.90;;;18.80;99.90;;;;;;8265070;28;20205;-64
2023/07/20 19:21:09;;;;;;;1.23;0.70;;;18.70;99.90;;;;;;8265388;28;20254;-64
2023/07/20 19:25:11;;;;;;;1.00;0.73;;;18.60;99.90;;;;;;8265363;28;20195;-66
2023/07/20 19:29:12;;;;;;;1.93;0.90;;;18.50;99.90;;;;;;8266701;28;20206;-64
2023/07/20 19:33:16;;;;;;;1.27;1.00;;;18.50;1.00;;;;;;8267364;28;20195;-64
2023/07/20 19:37:17;;;;;;;1.20;0.70;;;18.40;1.00;;;;;;8258467;28;20258;-63
2023/07/20 19:41:18;;;;;;;5.60;0.97;;;18.30;1.00;;;;;;8270999;28;20266;-63
2023/07/20 19:45:19;;;;;;;1.93;0.80;;;18.20;1.00;;;;;;8269322;28;20191;-65
2023/07/20 19:49:23;;;;;;;1.20;1.00;;;18.10;1.00;;;;;;8259893;28;20230;-67
2023/07/20 19:53:24;;;;;;;0.83;0.73;;;18.10;1.00;;;;;;8264166;28;20200;-65
2023/07/20 19:57:29;;;;;;;1.10;1.00;;;18.00;1.00;;;;;;8259404;28;20192;-64
2023/07/20 20:01:30;;;;;;;0.70;0.70;;;17.80;1.00;;;;;;8260859;28;20325;-65
2023/07/20 20:05:35;;;;;;;1.43;1.10;;;17.60;1.00;;;;;;8262066;28;20207;-65
2023/07/20 20:09:36;;;;;;;0.97;0.87;;;17.40;1.00;;;;;;8267215;28;20265;-65
2023/07/20 20:13:38;;;;;;;1.10;0.90;;;17.20;1.00;;;;;;8275578;28;20295;-64
2023/07/20 20:17:42;;;;;;;2.17;0.73;;;17.00;1.00;;;;;;8263536;28;20191;-64
2023/07/20 20:21:42;;;;;;;1.43;0.97;;;16.80;1.00;;;;;;8251329;28;20218;-64
2023/07/20 20:25:45;;;;;;;1.17;0.97;;;16.70;1.00;;;;;;8267825;28;20189;-65
2023/07/20 20:29:49;;;;;;;1.77;0.97;;;16.50;1.00;;;;;;8265778;28;20222;-66
2023/07/20 20:33:53;;;;;;;1.17;1.07;;;16.40;1.00;;;;;;8265394;28;20188;-64
2023/07/20 20:38:01;;;;;;;2.03;0.87;;;16.30;1.00;;;;;;8269607;28;20195;-63
2023/07/20 20:42:03;;;;;;;0.90;0.80;;;16.20;1.00;;;;;;8272200;28;20254;-64
2023/07/20 20:46:12;;;;;;;1.10;0.83;;;16.00;1.00;;;;;;8241463;28;20191;-65
2023/07/20 20:50:14;;;;;;;1.00;0.90;;;15.90;1.00;;;;;;8265243;28;20192;-66
2023/07/20 20:54:15;;;;;;;1.20;1.03;;;15.70;1.00;;;;;;8267441;28;20186;-65
2023/07/20 20:58:16;;;;;;;1.10;1.00;;;15.60;1.00;;;;;;8262441;28;20221;-65
2023/07/20 21:02:18;;;;;;;0.90;0.80;;;15.40;1.00;;;;;;8263792;28;20250;-65
2023/07/20 21:06:19;;;;;;;0.97;0.80;;;15.30;1.00;;;;;;8263809;28;20292;-65
2023/07/20 21:10:20;;;;;;;1.20;1.00;;;15.10;1.00;;;;;;8267707;28;20187;-64